createdAt,value
2022-09-26T00:01:10.191Z,11.40
2022-09-26T00:02:12.177Z,11.40
2022-09-26T00:03:14.268Z,11.40
2022-09-26T00:04:23.676Z,11.40
2022-09-26T00:05:26.547Z,11.50
2022-09-26T00:06:29.261Z,11.50
2022-09-26T00:07:31.273Z,11.50
2022-09-26T00:08:34.293Z,11.50
2022-09-26T00:09:36.079Z,11.60
2022-09-26T00:10:37.858Z,11.60
2022-09-26T00:11:40.300Z,11.60
2022-09-26T00:12:42.107Z,11.60
2022-09-26T00:13:44.335Z,11.70
2022-09-26T00:14:46.197Z,11.60
2022-09-26T00:15:47.973Z,11.70
2022-09-26T00:16:50.055Z,11.70
2022-09-26T00:17:52.135Z,11.80
2022-09-26T00:18:56.275Z,11.70
2022-09-26T00:19:58.030Z,11.80
2022-09-26T00:21:12.173Z,11.80
2022-09-26T00:22:13.947Z,11.80
2022-09-26T00:23:16.252Z,11.80
2022-09-26T00:24:19.933Z,11.90
2022-09-26T00:25:21.805Z,11.90
2022-09-26T00:26:25.240Z,11.90
2022-09-26T00:27:27.159Z,11.90
2022-09-26T00:28:29.231Z,11.90
2022-09-26T00:29:31.272Z,11.90
2022-09-26T00:30:36.176Z,11.90
2022-09-26T00:31:44.369Z,11.90
2022-09-26T00:32:46.705Z,11.90
2022-09-26T00:33:48.783Z,11.90
2022-09-26T00:34:50.804Z,11.90
2022-09-26T00:35:54.998Z,11.90
2022-09-26T00:36:56.732Z,11.90
2022-09-26T00:37:58.454Z,11.90
2022-09-26T00:39:01.246Z,12.00
2022-09-26T00:40:03.832Z,11.90
2022-09-26T00:41:06.613Z,11.90
2022-09-26T00:42:13.837Z,11.90
2022-09-26T00:43:25.580Z,11.90
2022-09-26T00:44:42.655Z,11.90
2022-09-26T00:45:44.610Z,11.90
2022-09-26T00:46:48.902Z,11.90
2022-09-26T00:48:03.806Z,11.90
2022-09-26T00:49:29.569Z,11.90
2022-09-26T00:50:41.866Z,11.90
2022-09-26T00:51:47.918Z,11.90
2022-09-26T00:52:54.516Z,11.90
2022-09-26T00:53:56.917Z,11.90
2022-09-26T00:55:02.457Z,11.90
2022-09-26T00:56:11.192Z,11.90
2022-09-26T00:57:17.992Z,11.90
2022-09-26T00:58:24.035Z,11.90
2022-09-26T00:59:31.274Z,11.90
2022-09-26T01:00:34.198Z,11.90
2022-09-26T01:01:37.853Z,11.90
2022-09-26T01:02:39.985Z,11.90
2022-09-26T01:03:44.562Z,11.90
2022-09-26T01:04:47.601Z,11.90
2022-09-26T01:05:49.702Z,11.90
2022-09-26T01:06:52.035Z,11.90
2022-09-26T01:07:57.051Z,11.90
2022-09-26T01:09:08.597Z,11.90
2022-09-26T01:10:10.659Z,11.90
2022-09-26T01:11:17.252Z,11.90
2022-09-26T01:12:21.175Z,11.90
2022-09-26T01:13:23.184Z,11.90
2022-09-26T01:14:25.357Z,11.90
2022-09-26T01:15:28.150Z,11.90
2022-09-26T01:16:31.680Z,11.90
2022-09-26T01:17:33.974Z,11.90
2022-09-26T01:18:36.101Z,11.90
2022-09-26T01:20:02.559Z,11.90
2022-09-26T01:21:29.837Z,11.90
2022-09-26T01:22:50.594Z,11.90
2022-09-26T01:23:55.031Z,11.90
2022-09-26T01:25:05.449Z,11.90
2022-09-26T01:26:24.416Z,11.90
2022-09-26T01:27:44.845Z,11.90
2022-09-26T01:29:23.925Z,11.90
2022-09-26T01:30:32.506Z,11.90
2022-09-26T01:32:22.959Z,11.90
2022-09-26T01:33:52.236Z,11.90
2022-09-26T01:35:14.265Z,11.90
2022-09-26T01:36:29.086Z,11.90
2022-09-26T01:37:59.599Z,11.90
2022-09-26T01:39:15.503Z,11.90
2022-09-26T01:40:45.282Z,11.90
2022-09-26T01:41:59.310Z,11.90
2022-09-26T01:43:23.957Z,11.90
2022-09-26T01:45:00.109Z,11.90
2022-09-26T01:46:12.812Z,11.90
2022-09-26T01:47:20.359Z,11.90
2022-09-26T01:48:35.312Z,11.90
2022-09-26T01:49:46.656Z,11.90
2022-09-26T01:51:17.706Z,11.90
2022-09-26T01:52:27.397Z,11.90
2022-09-26T01:53:48.163Z,11.90
2022-09-26T01:55:14.682Z,11.90
2022-09-26T01:56:21.257Z,11.90
2022-09-26T01:57:31.943Z,11.90
2022-09-26T01:58:45.958Z,11.90
2022-09-26T01:59:54.861Z,11.90
2022-09-26T02:01:01.128Z,11.90
2022-09-26T02:02:10.132Z,12.00
2022-09-26T02:03:16.387Z,12.00
2022-09-26T02:04:22.708Z,12.00
2022-09-26T02:05:28.900Z,12.00
2022-09-26T02:06:37.863Z,12.00
2022-09-26T02:07:46.656Z,12.00
2022-09-26T02:08:58.467Z,12.00
2022-09-26T02:10:08.108Z,12.00
2022-09-26T02:11:13.904Z,12.00
2022-09-26T02:12:23.079Z,12.00
2022-09-26T02:13:52.159Z,12.00
2022-09-26T02:14:58.331Z,12.00
2022-09-26T02:16:10.731Z,12.00
2022-09-26T02:17:20.443Z,12.00
2022-09-26T02:18:33.789Z,12.00
2022-09-26T02:19:49.436Z,12.00
2022-09-26T02:20:58.161Z,12.00
2022-09-26T02:22:01.566Z,12.00
2022-09-26T02:23:04.142Z,12.00
2022-09-26T02:24:06.153Z,12.00
2022-09-26T02:25:08.724Z,12.00
2022-09-26T02:26:10.887Z,12.00
2022-09-26T02:27:13.169Z,12.00
2022-09-26T02:28:16.166Z,12.00
2022-09-26T02:29:19.219Z,12.00
2022-09-26T02:30:22.396Z,12.00
2022-09-26T02:31:27.729Z,12.00
2022-09-26T02:32:33.302Z,12.00
2022-09-26T02:33:36.237Z,12.00
2022-09-26T02:34:40.172Z,12.00
2022-09-26T02:35:55.753Z,12.00
2022-09-26T02:37:01.140Z,12.00
2022-09-26T02:38:07.420Z,12.00
2022-09-26T02:39:15.264Z,12.00
2022-09-26T02:40:30.406Z,12.00
2022-09-26T02:41:57.409Z,12.00
2022-09-26T02:43:28.242Z,12.00
2022-09-26T02:44:48.355Z,12.00
2022-09-26T02:46:02.435Z,12.00
2022-09-26T02:47:23.797Z,12.00
2022-09-26T02:48:39.437Z,12.00
2022-09-26T02:49:53.934Z,12.00
2022-09-26T02:51:09.032Z,12.00
2022-09-26T02:52:40.172Z,12.10
2022-09-26T02:54:00.370Z,12.00
2022-09-26T02:55:45.296Z,12.00
2022-09-26T02:56:58.821Z,12.00
2022-09-26T02:58:09.488Z,12.00
2022-09-26T02:59:26.791Z,12.00
2022-09-26T03:00:38.964Z,12.00
2022-09-26T03:02:10.147Z,12.00
2022-09-26T03:03:24.880Z,12.00
2022-09-26T03:04:45.265Z,12.00
2022-09-26T03:05:51.776Z,12.00
2022-09-26T03:06:59.065Z,11.90
2022-09-26T03:08:10.078Z,11.90
2022-09-26T03:09:14.779Z,11.90
2022-09-26T03:10:17.316Z,11.90
2022-09-26T03:11:23.917Z,11.90
2022-09-26T03:12:29.812Z,11.90
2022-09-26T03:13:36.420Z,11.90
2022-09-26T03:14:41.722Z,11.90
2022-09-26T03:15:48.710Z,11.90
2022-09-26T03:16:52.536Z,11.90
2022-09-26T03:17:56.700Z,11.90
2022-09-26T03:19:08.485Z,11.90
2022-09-26T03:20:17.404Z,11.90
2022-09-26T03:21:19.294Z,11.90
2022-09-26T03:22:21.551Z,11.90
2022-09-26T03:23:27.012Z,11.90
2022-09-26T03:24:32.769Z,11.90
2022-09-26T03:25:34.604Z,11.90
2022-09-26T03:26:41.406Z,11.90
2022-09-26T03:27:44.303Z,11.90
2022-09-26T03:28:46.304Z,11.90
2022-09-26T03:29:48.326Z,11.90
2022-09-26T03:30:55.755Z,11.90
2022-09-26T03:32:02.041Z,11.90
2022-09-26T03:33:03.898Z,11.80
2022-09-26T03:34:06.015Z,11.80
2022-09-26T03:35:09.481Z,11.80
2022-09-26T03:36:11.275Z,11.80
2022-09-26T03:37:13.860Z,11.80
2022-09-26T03:38:15.904Z,11.80
2022-09-26T03:39:24.109Z,11.80
2022-09-26T03:40:36.618Z,11.80
2022-09-26T03:42:02.629Z,11.80
2022-09-26T03:43:05.952Z,11.80
2022-09-26T03:44:08.402Z,11.80
2022-09-26T03:45:28.884Z,11.80
2022-09-26T03:46:40.190Z,11.80
2022-09-26T03:47:42.640Z,11.80
2022-09-26T03:48:44.623Z,11.80
2022-09-26T03:49:46.544Z,11.80
2022-09-26T03:50:48.440Z,11.80
2022-09-26T03:51:50.529Z,11.80
2022-09-26T03:52:52.700Z,11.70
2022-09-26T03:53:55.999Z,11.80
2022-09-26T03:54:59.443Z,11.70
2022-09-26T03:56:20.516Z,11.70
2022-09-26T03:57:22.360Z,11.70
2022-09-26T03:58:36.349Z,11.70
2022-09-26T03:59:38.209Z,11.60
2022-09-26T04:00:41.004Z,11.60
2022-09-26T04:01:43.347Z,11.70
2022-09-26T04:02:45.331Z,11.70
2022-09-26T04:04:00.944Z,11.70
2022-09-26T04:05:02.718Z,11.60
2022-09-26T04:06:05.888Z,11.60
2022-09-26T04:07:08.466Z,11.60
2022-09-26T04:08:10.398Z,11.60
2022-09-26T04:09:16.962Z,11.60
2022-09-26T04:10:24.132Z,11.60
2022-09-26T04:11:26.056Z,11.60
2022-09-26T04:12:28.021Z,11.60
2022-09-26T04:13:50.736Z,11.60
2022-09-26T04:14:53.985Z,11.60
2022-09-26T04:15:59.810Z,11.60
2022-09-26T04:17:01.797Z,11.60
2022-09-26T04:18:08.394Z,11.60
2022-09-26T04:19:12.111Z,11.60
2022-09-26T04:20:14.031Z,11.60
2022-09-26T04:21:17.574Z,11.60
2022-09-26T04:22:19.394Z,11.60
2022-09-26T04:23:21.172Z,11.60
2022-09-26T04:24:22.968Z,11.60
2022-09-26T04:25:24.779Z,11.60
2022-09-26T04:26:26.688Z,11.60
2022-09-26T04:27:28.828Z,11.60
2022-09-26T04:28:31.994Z,11.60
2022-09-26T04:29:33.707Z,11.60
2022-09-26T04:31:04.764Z,11.60
2022-09-26T04:32:06.796Z,11.60
2022-09-26T04:33:26.608Z,11.60
2022-09-26T04:34:42.523Z,11.50
2022-09-26T04:35:45.003Z,11.50
2022-09-26T04:36:47.032Z,11.50
2022-09-26T04:37:50.717Z,11.50
2022-09-26T04:38:53.093Z,11.50
2022-09-26T04:39:56.604Z,11.50
2022-09-26T04:41:09.062Z,11.50
2022-09-26T04:42:11.079Z,11.50
2022-09-26T04:43:13.384Z,11.50
2022-09-26T04:44:15.279Z,11.50
2022-09-26T04:45:18.417Z,11.60
2022-09-26T04:46:26.921Z,11.60
2022-09-26T04:47:32.639Z,11.60
2022-09-26T04:48:54.624Z,11.60
2022-09-26T04:49:56.548Z,11.60
2022-09-26T04:50:58.875Z,11.50
2022-09-26T04:52:01.781Z,11.50
2022-09-26T04:53:06.398Z,11.60
2022-09-26T04:54:12.038Z,11.60
2022-09-26T04:55:16.983Z,11.60
2022-09-26T04:56:22.804Z,11.60
2022-09-26T04:57:24.751Z,11.60
2022-09-26T04:58:26.960Z,11.50
2022-09-26T04:59:29.237Z,11.60
2022-09-26T05:00:35.425Z,11.60
2022-09-26T05:01:39.538Z,11.60
2022-09-26T05:02:50.796Z,11.60
2022-09-26T05:03:58.841Z,11.60
2022-09-26T05:05:05.519Z,11.60
2022-09-26T05:06:11.212Z,11.60
2022-09-26T05:07:15.628Z,11.60
2022-09-26T05:08:19.786Z,11.60
2022-09-26T05:09:23.308Z,11.60
2022-09-26T05:10:29.205Z,11.60
2022-09-26T05:11:37.215Z,11.60
2022-09-26T05:12:42.195Z,11.50
2022-09-26T05:13:53.075Z,11.50
2022-09-26T05:14:56.667Z,11.50
2022-09-26T05:15:59.955Z,11.50
2022-09-26T05:17:02.987Z,11.50
2022-09-26T05:18:11.354Z,11.50
2022-09-26T05:19:13.978Z,11.50
2022-09-26T05:20:31.503Z,11.50
2022-09-26T05:21:37.876Z,11.50
2022-09-26T05:22:41.193Z,11.50
2022-09-26T05:24:02.204Z,11.50
2022-09-26T05:25:24.078Z,11.50
2022-09-26T05:26:44.326Z,11.50
2022-09-26T05:27:48.390Z,11.50
2022-09-26T05:29:06.831Z,11.40
2022-09-26T05:30:18.500Z,11.40
2022-09-26T05:31:29.207Z,11.40
2022-09-26T05:32:31.389Z,11.40
2022-09-26T05:33:34.032Z,11.40
2022-09-26T05:34:36.132Z,11.40
2022-09-26T05:35:40.251Z,11.40
2022-09-26T05:36:43.362Z,11.40
2022-09-26T05:37:46.453Z,11.40
2022-09-26T05:38:48.388Z,11.40
2022-09-26T05:40:10.001Z,11.40
2022-09-26T05:41:18.225Z,11.40
2022-09-26T05:42:20.618Z,11.40
2022-09-26T05:43:25.125Z,11.30
2022-09-26T05:44:28.449Z,11.30
2022-09-26T05:45:31.250Z,11.30
2022-09-26T05:46:36.207Z,11.30
2022-09-26T05:47:45.764Z,11.30
2022-09-26T05:48:47.632Z,11.30
2022-09-26T05:49:55.377Z,11.30
2022-09-26T05:51:26.041Z,11.30
2022-09-26T05:52:29.651Z,11.30
2022-09-26T05:53:32.994Z,11.20
2022-09-26T05:54:34.946Z,11.30
2022-09-26T05:55:50.096Z,11.30
2022-09-26T05:57:01.019Z,11.30
2022-09-26T05:58:34.709Z,11.30
2022-09-26T05:59:51.637Z,11.20
2022-09-26T06:01:09.490Z,11.20
2022-09-26T06:02:14.307Z,11.20
2022-09-26T06:03:36.062Z,11.30
2022-09-26T06:04:44.928Z,11.20
2022-09-26T06:06:17.018Z,11.20
2022-09-26T06:07:18.949Z,11.20
2022-09-26T06:08:23.552Z,11.20
2022-09-26T06:09:46.930Z,11.20
2022-09-26T06:11:03.524Z,11.20
2022-09-26T06:12:20.371Z,11.20
2022-09-26T06:13:22.313Z,11.30
2022-09-26T06:14:26.698Z,11.20
2022-09-26T06:15:30.083Z,11.20
2022-09-26T06:16:35.842Z,11.30
2022-09-26T06:17:38.436Z,11.30
2022-09-26T06:18:42.272Z,11.30
2022-09-26T06:19:45.362Z,11.30
2022-09-26T06:20:50.243Z,11.30
2022-09-26T06:21:53.783Z,11.30
2022-09-26T06:22:57.766Z,11.30
2022-09-26T06:23:59.725Z,11.30
2022-09-26T06:25:05.644Z,11.30
2022-09-26T06:26:09.907Z,11.30
2022-09-26T06:27:15.247Z,11.40
2022-09-26T06:28:18.553Z,11.40
2022-09-26T06:29:22.203Z,11.40
2022-09-26T06:30:25.042Z,11.40
2022-09-26T06:31:31.680Z,11.40
2022-09-26T06:32:46.439Z,11.40
2022-09-26T06:34:27.853Z,11.40
2022-09-26T06:36:07.138Z,11.40
2022-09-26T06:37:13.266Z,11.40
2022-09-26T06:38:15.284Z,11.40
2022-09-26T06:39:17.277Z,11.50
2022-09-26T06:40:21.033Z,11.50
2022-09-26T06:41:26.467Z,11.50
2022-09-26T06:42:28.381Z,11.50
2022-09-26T06:43:50.872Z,11.50
2022-09-26T06:45:22.232Z,11.50
2022-09-26T06:47:02.970Z,11.50
2022-09-26T06:48:11.901Z,11.50
2022-09-26T06:49:50.522Z,11.50
2022-09-26T06:51:15.573Z,11.50
2022-09-26T06:52:18.971Z,11.50
2022-09-26T06:53:23.049Z,11.60
2022-09-26T06:54:25.169Z,11.60
2022-09-26T06:55:27.524Z,11.60
2022-09-26T06:56:29.787Z,11.60
2022-09-26T06:57:40.489Z,11.60
2022-09-26T06:58:42.648Z,11.60
2022-09-26T06:59:44.520Z,11.60
2022-09-26T07:01:02.040Z,11.60
2022-09-26T07:02:24.079Z,11.70
2022-09-26T07:03:38.638Z,11.70
2022-09-26T07:05:05.527Z,11.70
2022-09-26T07:06:11.402Z,11.70
2022-09-26T07:07:13.294Z,11.70
2022-09-26T07:08:16.180Z,11.70
2022-09-26T07:09:18.855Z,11.70
2022-09-26T07:10:30.591Z,11.80
2022-09-26T07:12:10.054Z,11.80
2022-09-26T07:13:05.088Z,11.80
2022-09-26T07:14:07.139Z,11.80
2022-09-26T07:15:19.401Z,11.80
2022-09-26T07:16:26.631Z,11.80
2022-09-26T07:17:35.606Z,11.90
2022-09-26T07:18:40.351Z,11.90
2022-09-26T07:19:56.587Z,11.90
2022-09-26T07:21:28.067Z,11.90
2022-09-26T07:22:43.627Z,12.00
2022-09-26T07:23:46.578Z,12.00
2022-09-26T07:25:06.948Z,12.00
2022-09-26T07:26:10.658Z,12.10
2022-09-26T07:27:14.517Z,12.10
2022-09-26T07:28:16.807Z,12.20
2022-09-26T07:29:24.740Z,12.20
2022-09-26T07:30:28.458Z,12.20
2022-09-26T07:31:50.060Z,12.20
2022-09-26T07:33:10.685Z,12.20
2022-09-26T07:34:25.088Z,12.20
2022-09-26T07:35:27.371Z,12.20
2022-09-26T07:36:33.197Z,12.20
2022-09-26T07:37:36.525Z,12.20
2022-09-26T07:38:39.491Z,12.20
2022-09-26T07:39:41.619Z,12.20
2022-09-26T07:40:47.443Z,12.20
2022-09-26T07:41:51.909Z,12.10
2022-09-26T07:43:19.751Z,12.20
2022-09-26T07:46:06.286Z,12.10
2022-09-26T07:47:28.591Z,12.10
2022-09-26T07:48:50.131Z,12.10
2022-09-26T07:50:14.480Z,12.10
2022-09-26T07:51:35.376Z,12.10
2022-09-26T07:52:43.296Z,12.10
2022-09-26T07:53:58.684Z,12.10
2022-09-26T07:55:26.051Z,12.20
2022-09-26T07:56:42.319Z,12.20
2022-09-26T07:58:13.783Z,12.20
2022-09-26T07:59:36.744Z,12.20
2022-09-26T08:01:16.120Z,12.20
2022-09-26T08:02:36.406Z,12.20
2022-09-26T08:03:48.156Z,12.20
2022-09-26T08:05:17.458Z,12.20
2022-09-26T08:06:20.831Z,12.20
2022-09-26T08:07:23.012Z,12.20
2022-09-26T08:08:34.265Z,12.20
2022-09-26T08:09:36.463Z,12.30
2022-09-26T08:11:02.793Z,12.30
2022-09-26T08:12:21.182Z,12.30
2022-09-26T08:13:35.924Z,12.30
2022-09-26T08:14:49.640Z,12.30
2022-09-26T08:16:06.045Z,12.40
2022-09-26T08:17:14.388Z,12.40
2022-09-26T08:18:16.502Z,12.40
2022-09-26T08:19:18.303Z,12.40
2022-09-26T08:20:20.800Z,12.50
2022-09-26T08:21:23.268Z,12.50
2022-09-26T08:22:28.449Z,12.50
2022-09-26T08:23:30.495Z,12.50
2022-09-26T08:24:53.349Z,12.50
2022-09-26T08:26:09.773Z,12.50
2022-09-26T08:27:23.158Z,12.50
2022-09-26T08:28:28.864Z,12.60
2022-09-26T08:29:32.282Z,12.60
2022-09-26T08:30:34.638Z,12.60
2022-09-26T08:31:39.080Z,12.60
2022-09-26T08:32:41.888Z,12.60
2022-09-26T08:33:44.204Z,12.60
2022-09-26T08:34:47.161Z,12.60
2022-09-26T08:36:09.489Z,12.60
2022-09-26T08:37:29.435Z,12.60
2022-09-26T08:39:06.794Z,12.60
2022-09-26T08:40:51.590Z,12.60
2022-09-26T08:42:40.403Z,12.60
2022-09-26T08:44:26.404Z,12.60
2022-09-26T08:46:34.105Z,12.60
2022-09-26T08:48:03.166Z,12.60
2022-09-26T08:49:25.030Z,12.50
2022-09-26T08:50:50.083Z,12.50
2022-09-26T08:51:54.396Z,12.50
2022-09-26T08:53:08.999Z,12.50
2022-09-26T08:54:32.937Z,12.60
2022-09-26T08:55:41.047Z,12.60
2022-09-26T08:57:15.273Z,12.60
2022-09-26T08:58:29.141Z,12.60
2022-09-26T08:59:46.587Z,12.60
2022-09-26T09:00:58.996Z,12.60
2022-09-26T09:02:05.728Z,12.60
2022-09-26T09:03:43.975Z,12.60
2022-09-26T09:05:08.023Z,12.60
2022-09-26T09:06:15.438Z,12.70
2022-09-26T09:07:26.506Z,12.60
2022-09-26T09:08:39.662Z,12.70
2022-09-26T09:10:15.427Z,12.70
2022-09-26T09:12:01.906Z,12.60
2022-09-26T09:13:45.697Z,12.60
2022-09-26T09:16:02.472Z,12.60
2022-09-26T09:17:35.557Z,12.50
2022-09-26T09:19:00.870Z,12.50
2022-09-26T09:20:58.704Z,12.50
2022-09-26T09:22:44.975Z,12.50
2022-09-26T09:24:11.242Z,12.40
2022-09-26T09:25:16.879Z,12.40
2022-09-26T09:28:43.514Z,12.40
2022-09-26T09:30:20.174Z,12.40
2022-09-26T09:31:45.895Z,12.30
2022-09-26T09:33:23.993Z,12.20
2022-09-26T09:34:40.373Z,12.30
2022-09-26T09:36:43.262Z,12.30
2022-09-26T09:38:06.949Z,12.30
2022-09-26T09:39:26.460Z,12.40
2022-09-26T09:40:53.085Z,12.30
2022-09-26T09:42:00.344Z,12.40
2022-09-26T09:43:07.059Z,12.40
2022-09-26T09:44:30.064Z,12.40
2022-09-26T09:45:44.935Z,12.50
2022-09-26T09:46:50.818Z,12.50
2022-09-26T09:47:52.769Z,12.50
2022-09-26T09:49:20.582Z,12.50
2022-09-26T09:50:43.380Z,12.50
2022-09-26T09:52:15.635Z,12.50
2022-09-26T09:53:50.842Z,12.50
2022-09-26T09:55:14.271Z,12.50
2022-09-26T09:56:22.934Z,12.50
2022-09-26T09:57:42.914Z,12.50
2022-09-26T09:58:53.592Z,12.50
2022-09-26T10:00:22.354Z,12.50
2022-09-26T10:01:41.519Z,12.50
2022-09-26T10:02:53.847Z,12.50
2022-09-26T10:04:20.682Z,12.50
2022-09-26T10:05:43.194Z,12.50
2022-09-26T10:06:52.050Z,12.60
2022-09-26T10:08:00.264Z,12.50
2022-09-26T10:09:38.916Z,12.60
2022-09-26T10:11:13.680Z,12.60
2022-09-26T10:12:33.100Z,12.60
2022-09-26T10:13:56.187Z,12.60
2022-09-26T10:15:19.868Z,12.60
2022-09-26T10:17:09.561Z,12.60
2022-09-26T10:18:25.294Z,12.70
2022-09-26T10:19:45.270Z,12.70
2022-09-26T10:21:09.053Z,12.70
2022-09-26T10:22:17.402Z,12.70
2022-09-26T10:23:39.734Z,12.70
2022-09-26T10:24:48.132Z,12.70
2022-09-26T10:26:03.422Z,12.70
2022-09-26T10:27:14.252Z,12.60
2022-09-26T10:28:31.049Z,12.70
2022-09-26T10:29:34.483Z,12.70
2022-09-26T10:30:48.802Z,12.70
2022-09-26T10:31:58.614Z,12.70
2022-09-26T10:33:04.012Z,12.70
2022-09-26T10:34:31.050Z,12.70
2022-09-26T10:35:45.055Z,12.70
2022-09-26T10:36:48.428Z,12.70
2022-09-26T10:38:08.228Z,12.70
2022-09-26T10:39:38.657Z,12.70
2022-09-26T10:40:58.375Z,12.70
2022-09-26T10:42:02.467Z,12.70
2022-09-26T10:43:32.772Z,12.70
2022-09-26T10:44:41.407Z,12.70
2022-09-26T10:46:15.558Z,12.70
2022-09-26T10:47:41.073Z,12.60
2022-09-26T10:49:03.569Z,12.60
2022-09-26T10:50:17.256Z,12.60
2022-09-26T10:51:44.967Z,12.60
2022-09-26T10:52:54.357Z,12.60
2022-09-26T10:54:32.909Z,12.60
2022-09-26T10:55:43.175Z,12.70
2022-09-26T10:56:50.721Z,12.70
2022-09-26T10:57:58.802Z,12.70
2022-09-26T10:59:04.355Z,12.70
2022-09-26T11:00:08.477Z,12.70
2022-09-26T11:01:20.917Z,12.70
2022-09-26T11:02:25.541Z,12.70
2022-09-26T11:03:40.320Z,12.70
2022-09-26T11:05:17.825Z,12.70
2022-09-26T11:06:45.904Z,12.80
2022-09-26T11:07:56.211Z,12.80
2022-09-26T11:09:20.985Z,12.70
2022-09-26T11:10:49.335Z,12.70
2022-09-26T11:11:56.148Z,12.70
2022-09-26T11:13:18.347Z,12.80
2022-09-26T11:14:29.273Z,12.80
2022-09-26T11:16:07.498Z,12.80
2022-09-26T11:17:09.760Z,12.80
2022-09-26T11:18:25.266Z,12.80
2022-09-26T11:19:54.475Z,12.80
2022-09-26T11:21:14.450Z,12.80
2022-09-26T11:22:34.302Z,12.80
2022-09-26T11:23:50.886Z,12.80
2022-09-26T11:25:07.151Z,12.80
2022-09-26T11:26:21.422Z,12.80
2022-09-26T11:27:31.384Z,12.80
2022-09-26T11:28:41.857Z,12.80
2022-09-26T11:30:11.674Z,12.80
2022-09-26T11:31:25.972Z,12.80
2022-09-26T11:32:55.402Z,12.80
2022-09-26T11:34:31.527Z,12.80
2022-09-26T11:36:19.118Z,12.70
2022-09-26T11:37:47.412Z,12.70
2022-09-26T11:39:12.836Z,12.70
2022-09-26T11:40:30.323Z,12.70
2022-09-26T11:41:39.602Z,12.70
2022-09-26T11:43:08.709Z,12.70
2022-09-26T11:44:33.459Z,12.70
2022-09-26T11:46:05.650Z,12.70
2022-09-26T11:47:49.912Z,12.70
2022-09-26T11:49:38.587Z,12.70
2022-09-26T11:51:34.840Z,12.70
2022-09-26T11:52:55.853Z,12.70
2022-09-26T11:54:05.023Z,12.70
2022-09-26T11:55:37.719Z,12.70
2022-09-26T11:56:47.928Z,12.70
2022-09-26T11:58:28.347Z,12.70
2022-09-26T11:59:57.992Z,12.70
2022-09-26T12:01:10.413Z,12.70
2022-09-26T12:02:32.289Z,12.70
2022-09-26T12:04:00.025Z,12.80
2022-09-26T12:05:27.416Z,12.80
2022-09-26T12:06:35.101Z,12.70
2022-09-26T12:07:52.284Z,12.80
2022-09-26T12:09:16.656Z,12.80
2022-09-26T12:10:26.253Z,12.70
2022-09-26T12:11:59.368Z,12.70
2022-09-26T12:13:43.089Z,12.80
2022-09-26T12:15:02.326Z,12.80
2022-09-26T12:16:24.098Z,12.80
2022-09-26T12:18:04.107Z,12.80
2022-09-26T12:19:17.738Z,12.80
2022-09-26T12:20:34.236Z,12.80
2022-09-26T12:22:10.757Z,12.80
2022-09-26T12:23:33.569Z,12.80
2022-09-26T12:24:53.347Z,12.70
2022-09-26T12:26:15.809Z,12.70
2022-09-26T12:27:29.113Z,12.70
2022-09-26T12:28:59.827Z,12.70
2022-09-26T12:30:15.819Z,12.70
2022-09-26T12:31:29.996Z,12.70
2022-09-26T12:32:50.204Z,12.70
2022-09-26T12:34:00.433Z,12.80
2022-09-26T12:35:20.350Z,12.80
2022-09-26T12:36:49.374Z,12.80
2022-09-26T12:38:02.838Z,12.80
2022-09-26T12:39:24.922Z,12.80
2022-09-26T12:40:48.582Z,12.80
2022-09-26T12:42:01.925Z,12.80
2022-09-26T12:43:21.979Z,12.80
2022-09-26T12:44:39.748Z,12.90
2022-09-26T12:46:07.569Z,12.90
2022-09-26T12:47:17.520Z,13.00
2022-09-26T12:48:44.315Z,12.90
2022-09-26T12:50:36.562Z,12.90
2022-09-26T12:51:43.884Z,12.90
2022-09-26T12:52:53.970Z,13.00
2022-09-26T12:54:32.967Z,12.90
2022-09-26T12:55:47.089Z,12.90
2022-09-26T12:57:24.290Z,12.90
2022-09-26T12:58:50.226Z,12.90
2022-09-26T13:00:10.948Z,12.90
2022-09-26T13:02:07.526Z,12.90
2022-09-26T13:03:42.649Z,12.90
2022-09-26T13:05:02.024Z,12.90
2022-09-26T13:06:25.578Z,12.90
2022-09-26T13:08:02.145Z,12.90
2022-09-26T13:09:12.846Z,12.90
2022-09-26T13:10:38.009Z,12.90
2022-09-26T13:11:48.285Z,12.90
2022-09-26T13:12:52.678Z,12.90
2022-09-26T13:14:20.623Z,12.80
2022-09-26T13:15:32.299Z,12.90
2022-09-26T13:16:53.671Z,12.90
2022-09-26T13:18:13.710Z,12.90
2022-09-26T13:19:15.476Z,12.90
2022-09-26T13:20:27.805Z,12.90
2022-09-26T13:21:56.073Z,12.90
2022-09-26T13:23:35.614Z,12.90
2022-09-26T13:25:11.372Z,12.90
2022-09-26T13:26:31.320Z,12.90
2022-09-26T13:27:41.798Z,12.90
2022-09-26T13:29:15.525Z,12.90
2022-09-26T13:30:19.795Z,13.00
2022-09-26T13:31:24.234Z,13.00
2022-09-26T13:32:47.777Z,13.00
2022-09-26T13:33:59.171Z,13.00
2022-09-26T13:35:17.535Z,13.00
2022-09-26T13:36:22.292Z,13.00
2022-09-26T13:37:41.585Z,13.00
2022-09-26T13:38:45.102Z,13.00
2022-09-26T13:39:57.085Z,13.00
2022-09-26T13:41:35.730Z,13.10
2022-09-26T13:42:40.582Z,13.10
2022-09-26T13:44:23.141Z,13.10
2022-09-26T13:46:00.434Z,13.10
2022-09-26T13:47:35.518Z,13.10
2022-09-26T13:48:50.027Z,13.10
2022-09-26T13:49:51.984Z,13.20
2022-09-26T13:51:08.318Z,13.20
2022-09-26T13:53:04.148Z,13.20
2022-09-26T13:54:37.847Z,13.30
2022-09-26T13:55:40.084Z,13.30
2022-09-26T13:56:46.832Z,13.30
2022-09-26T13:58:03.898Z,13.40
2022-09-26T13:59:26.213Z,13.40
2022-09-26T14:00:31.301Z,13.50
2022-09-26T14:01:33.655Z,13.50
2022-09-26T14:02:35.500Z,13.60
2022-09-26T14:03:38.923Z,13.60
2022-09-26T14:04:40.755Z,13.60
2022-09-26T14:05:43.104Z,13.70
2022-09-26T14:07:40.083Z,13.70
2022-09-26T14:09:24.918Z,13.70
2022-09-26T14:10:37.201Z,13.70
2022-09-26T14:11:49.669Z,13.60
2022-09-26T14:12:54.441Z,13.60
2022-09-26T14:14:21.592Z,13.60
2022-09-26T14:15:25.022Z,13.60
2022-09-26T14:16:36.090Z,13.60
2022-09-26T14:18:07.610Z,13.60
2022-09-26T14:19:14.778Z,13.60
2022-09-26T14:20:23.502Z,13.60
2022-09-26T14:21:35.531Z,13.60
2022-09-26T14:22:52.948Z,13.60
2022-09-26T14:24:30.832Z,13.60
2022-09-26T14:25:55.492Z,13.60
2022-09-26T14:27:25.189Z,13.60
2022-09-26T14:28:35.694Z,13.60
2022-09-26T14:29:40.260Z,13.60
2022-09-26T14:31:22.172Z,13.50
2022-09-26T14:32:27.967Z,13.50
2022-09-26T14:33:29.768Z,13.50
2022-09-26T14:34:53.324Z,13.40
2022-09-26T14:36:25.971Z,13.50
2022-09-26T14:37:30.584Z,13.40
2022-09-26T14:38:32.580Z,13.40
2022-09-26T14:39:40.155Z,13.40
2022-09-26T14:40:57.995Z,13.40
2022-09-26T14:42:14.496Z,13.50
2022-09-26T14:43:19.296Z,13.40
2022-09-26T14:44:22.346Z,13.50
2022-09-26T14:45:27.878Z,13.50
2022-09-26T14:46:33.112Z,13.50
2022-09-26T14:47:43.324Z,13.50
2022-09-26T14:48:45.898Z,13.50
2022-09-26T14:50:00.030Z,13.50
2022-09-26T14:51:13.201Z,13.50
2022-09-26T14:52:19.770Z,13.60
2022-09-26T14:53:38.433Z,13.50
2022-09-26T14:54:40.956Z,13.50
2022-09-26T14:56:03.550Z,13.50
2022-09-26T14:57:08.439Z,13.60
2022-09-26T14:58:37.264Z,13.60
2022-09-26T14:59:41.859Z,13.60
2022-09-26T15:00:46.722Z,13.50
2022-09-26T15:01:48.700Z,13.60
2022-09-26T15:03:00.195Z,13.60
2022-09-26T15:04:24.865Z,13.60
2022-09-26T15:05:28.172Z,13.60
2022-09-26T15:06:35.664Z,13.60
2022-09-26T15:07:47.805Z,13.60
2022-09-26T15:08:50.133Z,13.60
2022-09-26T15:10:13.840Z,13.60
2022-09-26T15:11:45.353Z,13.60
2022-09-26T15:13:07.361Z,13.60
2022-09-26T15:14:21.593Z,13.50
2022-09-26T15:15:32.658Z,13.50
2022-09-26T15:16:40.867Z,13.50
2022-09-26T15:17:49.698Z,13.50
2022-09-26T15:19:14.715Z,13.50
2022-09-26T15:20:20.971Z,13.40
2022-09-26T15:21:36.846Z,13.40
2022-09-26T15:22:42.397Z,13.40
2022-09-26T15:23:50.226Z,13.40
2022-09-26T15:25:06.624Z,13.40
2022-09-26T15:26:09.300Z,13.40
2022-09-26T15:27:29.903Z,13.30
2022-09-26T15:28:34.987Z,13.40
2022-09-26T15:29:42.118Z,13.40
2022-09-26T15:30:44.203Z,13.40
2022-09-26T15:31:47.221Z,13.40
2022-09-26T15:32:49.208Z,13.40
2022-09-26T15:33:56.591Z,13.40
2022-09-26T15:35:01.614Z,13.40
2022-09-26T15:36:06.549Z,13.50
2022-09-26T15:37:21.353Z,13.50
2022-09-26T15:38:24.189Z,13.50
2022-09-26T15:39:36.793Z,13.50
2022-09-26T15:40:38.976Z,13.50
2022-09-26T15:42:03.375Z,13.50
2022-09-26T15:43:13.131Z,13.50
2022-09-26T15:44:24.107Z,13.50
2022-09-26T15:45:46.488Z,13.50
2022-09-26T15:46:49.839Z,13.50
2022-09-26T15:47:51.992Z,13.40
2022-09-26T15:48:53.762Z,13.40
2022-09-26T15:50:23.387Z,13.40
2022-09-26T15:51:39.047Z,13.50